createdAt,value
2018-07-08T00:01:18.185Z,18.80
2018-07-08T00:03:47.806Z,18.60
2018-07-08T00:06:18.879Z,18.60
2018-07-08T00:08:48.304Z,18.50
2018-07-08T00:11:17.717Z,18.50
2018-07-08T00:13:47.465Z,18.30
2018-07-08T00:16:18.676Z,18.20
2018-07-08T00:18:49.528Z,18.20
2018-07-08T00:21:18.393Z,18.20
2018-07-08T00:23:47.663Z,18.30
2018-07-08T00:26:16.946Z,18.30
2018-07-08T00:28:46.465Z,18.20
2018-07-08T00:31:16.557Z,18.10
2018-07-08T00:33:45.641Z,18.10
2018-07-08T00:36:16.079Z,18.10
2018-07-08T00:38:45.798Z,18.00
2018-07-08T00:41:16.803Z,18.00
2018-07-08T00:43:46.039Z,18.00
2018-07-08T00:46:16.323Z,17.90
2018-07-08T00:48:49.605Z,17.90
2018-07-08T00:51:21.828Z,17.80
2018-07-08T00:53:51.367Z,17.80
2018-07-08T00:56:21.522Z,17.70
2018-07-08T00:58:51.652Z,17.70
2018-07-08T01:01:21.225Z,17.70
2018-07-08T01:03:51.646Z,17.70
2018-07-08T01:08:52.865Z,17.50
2018-07-08T01:11:22.261Z,17.50
2018-07-08T01:13:52.844Z,17.50
2018-07-08T01:16:22.447Z,17.50
2018-07-08T01:18:51.909Z,17.50
2018-07-08T01:21:21.778Z,17.50
2018-07-08T01:23:53.117Z,17.40
2018-07-08T01:26:22.617Z,17.40
2018-07-08T01:28:52.143Z,17.30
2018-07-08T01:31:21.190Z,17.30
2018-07-08T01:33:51.805Z,17.30
2018-07-08T01:36:21.916Z,17.30
2018-07-08T01:38:51.453Z,17.20
2018-07-08T01:41:21.308Z,17.10
2018-07-08T01:44:05.797Z,17.10
2018-07-08T01:46:46.288Z,17.10
2018-07-08T01:49:15.160Z,17.00
2018-07-08T01:51:45.475Z,17.00
2018-07-08T01:54:14.677Z,17.00
2018-07-08T01:56:44.005Z,17.00
2018-07-08T01:59:13.886Z,17.00
2018-07-08T02:01:43.480Z,16.90
2018-07-08T02:04:12.907Z,16.80
2018-07-08T02:06:42.704Z,16.70
2018-07-08T02:09:12.164Z,16.70
2018-07-08T02:11:42.754Z,16.70
2018-07-08T02:14:20.845Z,16.70
2018-07-08T02:17:15.152Z,16.60
2018-07-08T02:19:47.600Z,16.60
2018-07-08T02:22:17.017Z,16.50
2018-07-08T02:24:46.433Z,16.50
2018-07-08T02:27:16.686Z,16.50
2018-07-08T02:29:47.797Z,16.40
2018-07-08T02:32:17.144Z,16.40
2018-07-08T02:34:46.867Z,16.40
2018-07-08T02:37:16.166Z,16.20
2018-07-08T02:39:45.728Z,16.40
2018-07-08T02:42:15.108Z,16.40
2018-07-08T02:44:46.073Z,16.30
2018-07-08T02:47:16.524Z,16.10
2018-07-08T02:50:11.310Z,16.10
2018-07-08T02:52:58.657Z,16.00
2018-07-08T02:55:27.586Z,16.00
2018-07-08T02:57:56.564Z,15.90
2018-07-08T03:00:29.864Z,15.90
2018-07-08T03:02:59.536Z,15.90
2018-07-08T03:05:29.077Z,15.90
2018-07-08T03:07:58.136Z,15.90
2018-07-08T03:10:27.304Z,15.90
2018-07-08T03:12:56.823Z,15.90
2018-07-08T03:15:26.375Z,15.90
2018-07-08T03:17:57.767Z,15.80
2018-07-08T03:20:29.728Z,15.80
2018-07-08T03:22:58.726Z,15.80
2018-07-08T03:25:27.631Z,15.70
2018-07-08T03:27:56.700Z,15.60
2018-07-08T03:30:29.257Z,15.70
2018-07-08T03:33:04.200Z,15.70
2018-07-08T03:38:08.083Z,15.60
2018-07-08T03:40:37.284Z,15.60
2018-07-08T03:43:08.513Z,15.60
2018-07-08T03:45:39.844Z,15.60
2018-07-08T03:48:11.672Z,15.60
2018-07-08T03:50:40.519Z,15.50
2018-07-08T03:53:09.983Z,15.60
2018-07-08T03:55:41.324Z,15.60
2018-07-08T03:58:10.645Z,15.50
2018-07-08T04:00:39.479Z,15.50
2018-07-08T04:03:09.086Z,15.50
2018-07-08T04:05:39.889Z,15.40
2018-07-08T04:08:08.932Z,15.30
2018-07-08T04:10:38.704Z,15.40
2018-07-08T04:13:07.920Z,15.40
2018-07-08T04:15:37.159Z,15.40
2018-07-08T04:18:09.232Z,15.40
2018-07-08T04:20:39.565Z,15.40
2018-07-08T04:23:13.217Z,15.40
2018-07-08T04:25:42.596Z,15.40
2018-07-08T04:28:11.612Z,15.40
2018-07-08T04:30:40.567Z,15.50
2018-07-08T04:33:10.141Z,15.50
2018-07-08T04:35:39.289Z,15.50
2018-07-08T04:38:10.283Z,15.50
2018-07-08T04:43:09.383Z,15.60
2018-07-08T04:45:39.068Z,15.60
2018-07-08T04:48:08.912Z,15.70
2018-07-08T04:50:38.284Z,15.70
2018-07-08T04:53:07.313Z,15.80
2018-07-08T04:55:36.576Z,15.90
2018-07-08T04:58:09.652Z,15.90
2018-07-08T05:00:41.131Z,16.00
2018-07-08T05:03:11.866Z,16.20
2018-07-08T05:05:42.060Z,16.30
2018-07-08T05:08:11.539Z,16.40
2018-07-08T05:10:44.037Z,16.50
2018-07-08T05:13:13.341Z,16.50
2018-07-08T05:15:43.157Z,16.70
2018-07-08T05:18:12.568Z,16.90
2018-07-08T05:20:45.371Z,17.00
2018-07-08T05:23:15.871Z,17.20
2018-07-08T05:25:45.856Z,17.20
2018-07-08T05:28:15.143Z,17.20
2018-07-08T05:30:44.283Z,17.30
2018-07-08T05:33:13.481Z,17.50
2018-07-08T05:35:44.410Z,17.50
2018-07-08T05:38:14.835Z,17.60
2018-07-08T05:40:44.208Z,17.70
2018-07-08T05:43:14.272Z,17.90
2018-07-08T05:45:43.457Z,18.00
2018-07-08T05:50:43.526Z,18.40
2018-07-08T05:53:12.328Z,18.10
2018-07-08T05:55:41.385Z,18.20
2018-07-08T05:58:11.329Z,18.30
2018-07-08T06:00:42.640Z,18.40
2018-07-08T06:03:13.705Z,18.40
2018-07-08T06:05:45.640Z,18.40
2018-07-08T06:08:14.534Z,18.40
2018-07-08T06:10:43.970Z,18.60
2018-07-08T06:13:13.603Z,18.60
2018-07-08T06:15:42.548Z,18.70
2018-07-08T06:18:12.706Z,18.90
2018-07-08T06:20:42.225Z,18.90
2018-07-08T06:23:14.068Z,19.00
2018-07-08T06:25:43.341Z,19.10
2018-07-08T06:28:12.502Z,19.20
2018-07-08T06:30:41.743Z,19.30
2018-07-08T06:33:10.648Z,19.40
2018-07-08T06:35:41.544Z,19.30
2018-07-08T06:38:11.589Z,19.50
2018-07-08T06:40:43.485Z,19.60
2018-07-08T06:43:13.624Z,19.80
2018-07-08T06:45:43.514Z,19.80
2018-07-08T06:48:12.896Z,19.80
2018-07-08T06:50:42.212Z,19.90
2018-07-08T06:53:11.487Z,20.10
2018-07-08T06:55:40.580Z,20.40
2018-07-08T06:58:10.621Z,20.30
2018-07-08T07:00:39.826Z,20.40
2018-07-08T07:03:09.352Z,20.50
2018-07-08T07:05:38.385Z,20.60
2018-07-08T07:08:07.242Z,20.60
2018-07-08T07:10:37.997Z,20.60
2018-07-08T07:13:07.376Z,20.90
2018-07-08T07:15:37.109Z,20.90
2018-07-08T07:18:06.324Z,21.10
2018-07-08T07:20:35.751Z,21.20
2018-07-08T07:23:04.942Z,21.20
2018-07-08T07:25:34.128Z,21.20
2018-07-08T07:28:04.045Z,21.20
2018-07-08T07:30:35.145Z,21.50
2018-07-08T07:33:06.409Z,21.60
2018-07-08T07:35:35.662Z,21.60
2018-07-08T07:38:05.508Z,21.80
2018-07-08T07:40:34.678Z,21.90
2018-07-08T07:43:03.500Z,22.10
2018-07-08T07:45:36.691Z,22.20
2018-07-08T07:48:08.001Z,22.20
2018-07-08T07:50:36.937Z,22.20
2018-07-08T07:53:06.319Z,22.20
2018-07-08T07:55:35.377Z,22.30
2018-07-08T07:58:04.810Z,22.40
2018-07-08T08:00:33.757Z,22.60
2018-07-08T08:03:03.167Z,22.80
2018-07-08T08:05:35.606Z,23.00
2018-07-08T08:08:05.611Z,22.80
2018-07-08T08:10:34.484Z,22.70
2018-07-08T08:13:04.329Z,23.10
2018-07-08T08:15:36.751Z,23.20
2018-07-08T08:18:06.010Z,23.40
2018-07-08T08:20:34.857Z,23.40
2018-07-08T08:23:03.696Z,23.40
2018-07-08T08:25:35.067Z,23.40
2018-07-08T08:28:08.387Z,23.60
2018-07-08T08:30:38.875Z,23.80
2018-07-08T08:33:09.496Z,24.00
2018-07-08T08:35:39.971Z,24.00
2018-07-08T08:38:08.849Z,24.10
2018-07-08T08:40:38.046Z,24.20
2018-07-08T08:43:07.205Z,24.10
2018-07-08T08:45:37.924Z,24.30
2018-07-08T08:48:08.702Z,24.20
2018-07-08T08:50:37.765Z,24.40
2018-07-08T08:55:35.559Z,24.90
2018-07-08T08:58:05.446Z,25.10
2018-07-08T09:00:34.335Z,25.00
2018-07-08T09:03:03.125Z,25.00
2018-07-08T09:05:32.284Z,25.20
2018-07-08T09:08:01.929Z,25.10
2018-07-08T09:10:31.351Z,25.40
2018-07-08T09:13:00.756Z,25.40
2018-07-08T09:15:30.404Z,25.40
2018-07-08T09:18:01.272Z,25.60
2018-07-08T09:20:31.482Z,25.60
2018-07-08T09:23:01.108Z,25.60
2018-07-08T09:25:30.469Z,25.30
2018-07-08T09:27:59.815Z,25.30
2018-07-08T09:30:28.951Z,25.30
2018-07-08T09:32:57.810Z,25.20
2018-07-08T09:35:27.116Z,25.40
2018-07-08T09:40:33.176Z,25.40
2018-07-08T09:43:05.019Z,25.30
2018-07-08T09:45:37.304Z,25.20
2018-07-08T09:48:10.574Z,25.40
2018-07-08T09:50:45.344Z,25.50
2018-07-08T09:53:16.671Z,25.60
2018-07-08T09:55:46.722Z,25.50
2018-07-08T09:58:15.999Z,25.50
2018-07-08T10:00:45.681Z,25.80
2018-07-08T10:03:15.766Z,26.20
2018-07-08T10:05:46.580Z,25.60
2018-07-08T10:08:16.257Z,25.60
2018-07-08T10:10:45.996Z,25.70
2018-07-08T10:13:18.167Z,25.80
2018-07-08T10:15:51.190Z,26.00
2018-07-08T10:18:22.112Z,26.00
2018-07-08T10:20:51.990Z,26.20
2018-07-08T10:23:20.998Z,26.10
2018-07-08T10:25:51.227Z,26.00
2018-07-08T10:28:22.525Z,26.30
2018-07-08T10:30:52.328Z,26.40
2018-07-08T10:33:23.385Z,26.60
2018-07-08T10:35:58.917Z,26.80
2018-07-08T10:38:30.526Z,26.90
2018-07-08T10:41:00.414Z,27.00
2018-07-08T10:43:31.417Z,27.20
2018-07-08T10:46:10.205Z,27.30
2018-07-08T10:48:39.036Z,27.10
2018-07-08T10:51:08.026Z,27.10
2018-07-08T10:53:37.507Z,26.90
2018-07-08T10:56:06.753Z,27.10
2018-07-08T10:58:36.466Z,27.40
2018-07-08T11:01:06.451Z,27.60
2018-07-08T11:03:35.392Z,27.80
2018-07-08T11:06:05.098Z,28.00
2018-07-08T11:08:34.033Z,27.90
2018-07-08T11:13:32.600Z,28.10
2018-07-08T11:16:02.205Z,27.80
2018-07-08T11:18:37.082Z,27.70
2018-07-08T11:21:07.103Z,27.60
2018-07-08T11:23:38.725Z,27.40
2018-07-08T11:26:08.300Z,27.20
2018-07-08T11:28:37.879Z,27.20
2018-07-08T11:31:06.936Z,27.40
2018-07-08T11:33:36.632Z,27.50
2018-07-08T11:36:07.371Z,28.10
2018-07-08T11:38:42.504Z,28.30
2018-07-08T11:41:13.569Z,28.10
2018-07-08T11:43:42.928Z,28.50
2018-07-08T11:46:12.241Z,28.70
2018-07-08T11:48:42.086Z,28.00
2018-07-08T11:51:11.356Z,27.80
2018-07-08T11:53:40.936Z,27.60
2018-07-08T11:56:11.597Z,27.90
2018-07-08T11:58:42.226Z,28.50
2018-07-08T12:01:11.190Z,29.10
2018-07-08T12:03:40.533Z,29.20
2018-07-08T12:06:09.533Z,28.80
2018-07-08T12:08:38.966Z,28.50
2018-07-08T12:11:07.880Z,28.80
2018-07-08T12:13:37.370Z,28.70
2018-07-08T12:16:08.693Z,28.40
2018-07-08T12:18:38.349Z,28.20
2018-07-08T12:21:08.032Z,28.00
2018-07-08T12:26:07.904Z,28.40
2018-07-08T12:28:37.704Z,28.40
2018-07-08T12:31:06.911Z,28.50
2018-07-08T12:33:37.030Z,28.40
2018-07-08T12:36:08.814Z,28.60
2018-07-08T12:38:38.665Z,28.40
2018-07-08T12:41:08.719Z,27.80
2018-07-08T12:43:37.909Z,27.80
2018-07-08T12:46:11.088Z,27.90
2018-07-08T12:48:40.660Z,28.40
2018-07-08T12:51:13.374Z,28.40
2018-07-08T12:53:45.788Z,28.30
2018-07-08T12:56:17.529Z,28.20
2018-07-08T12:58:47.035Z,28.10
2018-07-08T13:01:17.763Z,28.00
2018-07-08T13:03:46.822Z,28.20
2018-07-08T13:06:16.222Z,28.10
2018-07-08T13:08:45.481Z,28.20
2018-07-08T13:11:16.232Z,28.40
2018-07-08T13:13:47.844Z,28.40
2018-07-08T13:16:17.330Z,28.30
2018-07-08T13:18:46.991Z,28.40
2018-07-08T13:21:16.325Z,28.20
2018-07-08T13:23:45.469Z,27.80
2018-07-08T13:26:14.645Z,27.90
2018-07-08T13:28:46.238Z,27.90
2018-07-08T13:31:15.552Z,27.80
2018-07-08T13:33:44.625Z,27.80
2018-07-08T13:36:13.901Z,28.10
2018-07-08T13:38:42.739Z,28.10
2018-07-08T13:41:12.202Z,28.30
2018-07-08T13:43:42.595Z,28.30
2018-07-08T13:46:12.150Z,28.20
2018-07-08T13:48:41.382Z,28.10
2018-07-08T13:51:10.783Z,27.90
2018-07-08T13:53:39.646Z,28.00
2018-07-08T13:56:10.099Z,28.20
2018-07-08T13:58:42.590Z,28.10
2018-07-08T14:01:20.941Z,28.20
2018-07-08T14:03:52.422Z,28.40
2018-07-08T14:06:23.395Z,28.60
2018-07-08T14:08:53.481Z,28.50
2018-07-08T14:11:22.859Z,28.50
2018-07-08T14:13:52.582Z,29.00
2018-07-08T14:16:21.913Z,28.90
2018-07-08T14:18:53.551Z,28.90
2018-07-08T14:21:23.431Z,28.80
2018-07-08T14:23:54.175Z,28.50
2018-07-08T14:26:23.894Z,28.70
2018-07-08T14:28:53.094Z,28.80
2018-07-08T14:31:22.624Z,28.80
2018-07-08T14:33:51.855Z,28.90
2018-07-08T14:36:21.704Z,29.20
2018-07-08T14:38:50.889Z,29.10
2018-07-08T14:41:21.273Z,29.00
2018-07-08T14:44:02.538Z,29.20
2018-07-08T14:46:32.439Z,29.40
2018-07-08T14:49:01.332Z,29.40
2018-07-08T14:51:30.499Z,29.40
2018-07-08T14:53:59.395Z,29.30
2018-07-08T14:56:28.282Z,29.20
2018-07-08T15:01:28.186Z,29.00
2018-07-08T15:06:26.370Z,28.90
2018-07-08T15:08:55.595Z,28.90
2018-07-08T15:11:24.857Z,28.90
2018-07-08T15:13:55.230Z,29.10
2018-07-08T15:18:54.303Z,29.00
2018-07-08T15:21:24.632Z,29.10
2018-07-08T15:23:54.344Z,29.20
2018-07-08T15:28:52.701Z,29.10
2018-07-08T15:31:21.747Z,29.00
2018-07-08T15:33:51.826Z,29.30
2018-07-08T15:36:21.474Z,29.30
2018-07-08T15:38:51.121Z,29.00
2018-07-08T15:41:20.618Z,29.00
2018-07-08T15:43:49.972Z,29.20
2018-07-08T15:46:23.416Z,29.10
2018-07-08T15:48:53.900Z,29.30
2018-07-08T15:51:23.158Z,29.00
2018-07-08T15:53:53.042Z,29.00
2018-07-08T15:58:50.656Z,29.20
2018-07-08T16:01:24.212Z,29.10
2018-07-08T16:03:54.353Z,29.10
2018-07-08T16:06:24.853Z,29.00
2018-07-08T16:08:54.892Z,28.80
2018-07-08T16:11:25.000Z,28.70
2018-07-08T16:13:55.249Z,28.90
2018-07-08T16:16:24.913Z,28.80
2018-07-08T16:18:58.309Z,28.90
2018-07-08T16:21:27.933Z,28.80
2018-07-08T16:24:00.091Z,28.70
2018-07-08T16:26:30.304Z,28.70
2018-07-08T16:28:59.400Z,28.60
2018-07-08T16:31:28.870Z,28.60
2018-07-08T16:33:58.180Z,28.60
2018-07-08T16:36:27.593Z,28.80
2018-07-08T16:38:57.059Z,28.90
2018-07-08T16:41:28.548Z,28.70
2018-07-08T16:43:59.800Z,28.80
2018-07-08T16:46:28.747Z,28.60
2018-07-08T16:48:58.869Z,28.60
2018-07-08T16:51:27.776Z,28.70
2018-07-08T16:53:56.624Z,28.70
2018-07-08T16:56:26.331Z,28.60
2018-07-08T16:58:56.945Z,28.60
2018-07-08T17:01:27.545Z,28.60
2018-07-08T17:03:56.815Z,28.70
2018-07-08T17:06:26.068Z,28.70
2018-07-08T17:08:55.381Z,28.60
2018-07-08T17:11:24.524Z,28.60
2018-07-08T17:13:53.773Z,28.70
2018-07-08T17:16:26.818Z,28.70
2018-07-08T17:18:59.416Z,28.80
2018-07-08T17:21:30.852Z,28.90
2018-07-08T17:24:00.558Z,28.90
2018-07-08T17:26:29.459Z,28.80
2018-07-08T17:29:00.830Z,29.00
2018-07-08T17:31:29.960Z,28.80
2018-07-08T17:34:01.809Z,28.80
2018-07-08T17:36:31.052Z,28.80
2018-07-08T17:39:03.194Z,28.80
2018-07-08T17:41:34.938Z,28.70
2018-07-08T17:44:09.097Z,28.70
2018-07-08T17:46:38.332Z,28.50
2018-07-08T17:49:09.071Z,28.50
2018-07-08T17:51:39.033Z,28.50
2018-07-08T17:54:08.395Z,28.50
2018-07-08T17:56:38.389Z,28.50
2018-07-08T17:59:08.066Z,28.40
2018-07-08T18:04:07.547Z,28.20
2018-07-08T18:06:38.013Z,28.30
2018-07-08T18:09:07.673Z,28.40
2018-07-08T18:11:37.133Z,28.30
2018-07-08T18:14:08.121Z,28.10
2018-07-08T18:16:37.081Z,28.10
2018-07-08T18:19:10.496Z,28.10
2018-07-08T18:21:40.760Z,28.00
2018-07-08T18:24:13.126Z,27.90
2018-07-08T18:26:46.164Z,28.00
2018-07-08T18:29:18.964Z,27.90
2018-07-08T18:31:48.630Z,27.80
2018-07-08T18:34:17.674Z,27.80
2018-07-08T18:36:48.116Z,27.70
2018-07-08T18:39:17.224Z,27.70
2018-07-08T18:41:47.168Z,27.70
2018-07-08T18:44:17.873Z,27.70
2018-07-08T18:46:52.227Z,27.60
2018-07-08T18:49:22.823Z,27.60
2018-07-08T18:51:55.700Z,27.60
2018-07-08T18:54:24.615Z,27.50
2018-07-08T18:56:53.623Z,27.50
2018-07-08T18:59:22.511Z,27.40
2018-07-08T19:01:51.616Z,27.30
2018-07-08T19:04:23.303Z,27.40
2018-07-08T19:06:53.597Z,27.30
2018-07-08T19:09:22.970Z,27.20
2018-07-08T19:11:52.426Z,27.10
2018-07-08T19:14:21.789Z,27.00
2018-07-08T19:16:51.689Z,27.00
2018-07-08T19:19:21.065Z,26.80
2018-07-08T19:21:51.602Z,26.90
2018-07-08T19:24:23.439Z,26.90
2018-07-08T19:26:53.321Z,26.90
2018-07-08T19:29:24.360Z,26.90
2018-07-08T19:31:53.932Z,26.60
2018-07-08T19:34:23.060Z,26.70
2018-07-08T19:36:52.034Z,26.60
2018-07-08T19:39:21.325Z,26.50
2018-07-08T19:41:51.072Z,26.50
2018-07-08T19:44:25.679Z,26.40
2018-07-08T19:47:01.217Z,26.30
2018-07-08T19:49:33.390Z,26.30
2018-07-08T19:52:02.662Z,26.10
2018-07-08T19:54:32.140Z,26.00
2018-07-08T19:57:05.095Z,26.00
2018-07-08T19:59:34.205Z,25.90
2018-07-08T20:02:03.537Z,26.00
2018-07-08T20:04:33.514Z,25.90
2018-07-08T20:07:04.341Z,25.90
2018-07-08T20:09:35.798Z,25.80
2018-07-08T20:12:05.498Z,25.70
2018-07-08T20:14:34.477Z,25.60
2018-07-08T20:17:04.158Z,25.60
2018-07-08T20:19:35.249Z,25.40
2018-07-08T20:22:05.176Z,25.30
2018-07-08T20:24:35.779Z,25.20
2018-07-08T20:27:05.138Z,25.20
2018-07-08T20:32:04.271Z,25.10
2018-07-08T20:34:34.939Z,25.00
2018-07-08T20:37:04.712Z,25.00
2018-07-08T20:42:02.799Z,24.90
2018-07-08T20:44:32.915Z,25.00
2018-07-08T20:47:03.810Z,24.90
2018-07-08T20:49:32.723Z,24.70
2018-07-08T20:52:01.657Z,24.60
2018-07-08T20:54:30.764Z,24.50
2018-07-08T20:57:02.228Z,24.40
2018-07-08T20:59:34.001Z,24.30
2018-07-08T21:02:03.029Z,24.10
2018-07-08T21:04:32.192Z,23.80
2018-07-08T21:07:01.441Z,23.70
2018-07-08T21:09:31.994Z,23.40
2018-07-08T21:12:01.800Z,23.00
2018-07-08T21:14:31.988Z,22.80
2018-07-08T21:17:01.556Z,22.70
2018-07-08T21:19:31.315Z,22.60
2018-07-08T21:22:01.476Z,22.60
2018-07-08T21:24:30.413Z,22.40
2018-07-08T21:26:59.874Z,22.20
2018-07-08T21:29:33.164Z,22.10
2018-07-08T21:32:04.033Z,22.00
2018-07-08T21:34:33.804Z,21.90
2018-07-08T21:37:06.305Z,21.80
2018-07-08T21:39:36.549Z,21.90
2018-07-08T21:42:09.412Z,21.80
2018-07-08T21:44:39.328Z,21.60
2018-07-08T21:47:08.914Z,21.50
2018-07-08T21:49:38.312Z,21.50
2018-07-08T21:54:37.740Z,21.30
2018-07-08T21:57:09.182Z,21.30
2018-07-08T21:59:39.243Z,21.40
2018-07-08T22:02:17.921Z,21.50
2018-07-08T22:04:48.777Z,21.30
2018-07-08T22:07:24.325Z,21.20
2018-07-08T22:09:54.238Z,21.00
2018-07-08T22:12:23.449Z,20.90
2018-07-08T22:14:52.633Z,20.70
2018-07-08T22:17:23.365Z,20.70
2018-07-08T22:19:52.369Z,20.60
2018-07-08T22:22:21.934Z,20.50
2018-07-08T22:24:51.501Z,20.50
2018-07-08T22:27:20.708Z,20.40
2018-07-08T22:29:49.608Z,20.30
2018-07-08T22:32:19.444Z,20.30
2018-07-08T22:34:48.888Z,20.30
2018-07-08T22:37:18.364Z,20.30
2018-07-08T22:39:49.813Z,20.20
2018-07-08T22:42:20.187Z,20.10
2018-07-08T22:44:49.429Z,20.00
2018-07-08T22:47:18.577Z,20.00
2018-07-08T22:49:47.593Z,20.00
2018-07-08T22:52:16.997Z,19.90
2018-07-08T22:54:46.644Z,19.80
2018-07-08T22:57:17.284Z,19.80
2018-07-08T22:59:57.907Z,19.80
2018-07-08T23:05:02.439Z,19.60
2018-07-08T23:07:31.614Z,19.60
2018-07-08T23:10:00.860Z,19.50
2018-07-08T23:12:30.720Z,19.50
2018-07-08T23:15:00.133Z,19.30
2018-07-08T23:17:33.464Z,19.30
2018-07-08T23:20:03.786Z,19.20
2018-07-08T23:22:43.674Z,19.20
2018-07-08T23:25:13.037Z,19.20
2018-07-08T23:30:13.604Z,19.20
2018-07-08T23:32:42.521Z,19.30
2018-07-08T23:35:12.484Z,19.10
2018-07-08T23:37:42.443Z,19.20
2018-07-08T23:40:12.030Z,19.00
2018-07-08T23:42:41.463Z,19.10
2018-07-08T23:45:16.553Z,19.10
2018-07-08T23:47:49.478Z,19.00
2018-07-08T23:50:19.966Z,19.00
2018-07-08T23:52:49.175Z,18.90
2018-07-08T23:55:19.148Z,18.80
2018-07-08T23:57:48.833Z,18.70
